sensor_id;sensor_type;location;lat;lon;timestamp;P1;durP1;ratioP1;P2;durP2;ratioP2
3726;SDS011;1879;45.876;12.300;2022-11-14T00:00:08;19.20;;;17.30;;
3726;SDS011;1879;45.876;12.300;2022-11-14T00:02:35;17.40;;;15.67;;
3726;SDS011;1879;45.876;12.300;2022-11-14T00:05:03;17.40;;;15.60;;
3726;SDS011;1879;45.876;12.300;2022-11-14T00:07:30;17.23;;;15.53;;
3726;SDS011;1879;45.876;12.300;2022-11-14T00:09:58;15.00;;;13.40;;
3726;SDS011;1879;45.876;12.300;2022-11-14T00:12:26;14.93;;;13.43;;
3726;SDS011;1879;45.876;12.300;2022-11-14T00:14:54;15.33;;;13.83;;
3726;SDS011;1879;45.876;12.300;2022-11-14T00:17:21;15.43;;;14.00;;
3726;SDS011;1879;45.876;12.300;2022-11-14T00:19:48;16.33;;;13.20;;
3726;SDS011;1879;45.876;12.300;2022-11-14T00:22:15;14.43;;;12.90;;
3726;SDS011;1879;45.876;12.300;2022-11-14T00:24:43;13.83;;;12.43;;
3726;SDS011;1879;45.876;12.300;2022-11-14T00:27:10;16.37;;;14.67;;
3726;SDS011;1879;45.876;12.300;2022-11-14T00:29:39;14.50;;;12.90;;
3726;SDS011;1879;45.876;12.300;2022-11-14T00:32:06;14.23;;;12.30;;
3726;SDS011;1879;45.876;12.300;2022-11-14T00:34:33;13.03;;;11.80;;
3726;SDS011;1879;45.876;12.300;2022-11-14T00:37:01;12.60;;;11.30;;
3726;SDS011;1879;45.876;12.300;2022-11-14T00:39:28;12.50;;;11.30;;
3726;SDS011;1879;45.876;12.300;2022-11-14T00:41:55;12.60;;;11.40;;
3726;SDS011;1879;45.876;12.300;2022-11-14T00:44:22;11.20;;;10.20;;
3726;SDS011;1879;45.876;12.300;2022-11-14T00:46:51;11.37;;;10.20;;
3726;SDS011;1879;45.876;12.300;2022-11-14T00:49:18;11.63;;;10.53;;
3726;SDS011;1879;45.876;12.300;2022-11-14T00:51:45;11.43;;;10.10;;
3726;SDS011;1879;45.876;12.300;2022-11-14T00:54:13;11.70;;;10.50;;
3726;SDS011;1879;45.876;12.300;2022-11-14T00:56:40;11.63;;;10.40;;
3726;SDS011;1879;45.876;12.300;2022-11-14T00:59:07;11.60;;;10.40;;
3726;SDS011;1879;45.876;12.300;2022-11-14T01:01:34;12.07;;;10.83;;
3726;SDS011;1879;45.876;12.300;2022-11-14T01:04:03;11.50;;;10.20;;
3726;SDS011;1879;45.876;12.300;2022-11-14T01:06:30;12.30;;;10.33;;
3726;SDS011;1879;45.876;12.300;2022-11-14T01:08:57;10.70;;;9.60;;
3726;SDS011;1879;45.876;12.300;2022-11-14T01:11:25;12.13;;;10.83;;
3726;SDS011;1879;45.876;12.300;2022-11-14T01:13:52;11.93;;;10.80;;
3726;SDS011;1879;45.876;12.300;2022-11-14T01:16:19;12.10;;;11.00;;
3726;SDS011;1879;45.876;12.300;2022-11-14T01:18:47;13.53;;;11.67;;
3726;SDS011;1879;45.876;12.300;2022-11-14T01:21:15;12.63;;;11.40;;
3726;SDS011;1879;45.876;12.300;2022-11-14T01:23:42;11.20;;;10.10;;
3726;SDS011;1879;45.876;12.300;2022-11-14T01:26:10;12.00;;;10.80;;
3726;SDS011;1879;45.876;12.300;2022-11-14T01:28:38;12.87;;;11.43;;
3726;SDS011;1879;45.876;12.300;2022-11-14T01:31:06;12.77;;;11.43;;
3726;SDS011;1879;45.876;12.300;2022-11-14T01:33:34;11.77;;;10.57;;
3726;SDS011;1879;45.876;12.300;2022-11-14T01:36:01;11.90;;;10.60;;
3726;SDS011;1879;45.876;12.300;2022-11-14T01:38:30;12.53;;;11.33;;
3726;SDS011;1879;45.876;12.300;2022-11-14T01:40:57;12.20;;;11.00;;
3726;SDS011;1879;45.876;12.300;2022-11-14T01:43:25;11.73;;;10.27;;
3726;SDS011;1879;45.876;12.300;2022-11-14T01:45:53;12.43;;;11.13;;
3726;SDS011;1879;45.876;12.300;2022-11-14T01:48:22;11.43;;;10.17;;
3726;SDS011;1879;45.876;12.300;2022-11-14T01:50:53;13.73;;;12.33;;
3726;SDS011;1879;45.876;12.300;2022-11-14T01:53:21;12.20;;;10.83;;
3726;SDS011;1879;45.876;12.300;2022-11-14T01:55:50;11.33;;;10.33;;
3726;SDS011;1879;45.876;12.300;2022-11-14T01:58:18;11.70;;;10.50;;
3726;SDS011;1879;45.876;12.300;2022-11-14T02:00:46;11.63;;;10.47;;
3726;SDS011;1879;45.876;12.300;2022-11-14T02:03:14;11.53;;;9.60;;
3726;SDS011;1879;45.876;12.300;2022-11-14T02:05:42;13.40;;;12.00;;
3726;SDS011;1879;45.876;12.300;2022-11-14T02:08:10;11.50;;;10.40;;
3726;SDS011;1879;45.876;12.300;2022-11-14T02:10:39;11.60;;;10.50;;
3726;SDS011;1879;45.876;12.300;2022-11-14T02:13:07;12.10;;;10.80;;
3726;SDS011;1879;45.876;12.300;2022-11-14T02:15:35;12.40;;;11.20;;
3726;SDS011;1879;45.876;12.300;2022-11-14T02:18:03;11.87;;;10.67;;
3726;SDS011;1879;45.876;12.300;2022-11-14T02:20:34;11.90;;;10.63;;
3726;SDS011;1879;45.876;12.300;2022-11-14T02:23:02;14.57;;;10.93;;
3726;SDS011;1879;45.876;12.300;2022-11-14T02:25:30;11.50;;;10.37;;
3726;SDS011;1879;45.876;12.300;2022-11-14T02:27:57;12.00;;;10.70;;
3726;SDS011;1879;45.876;12.300;2022-11-14T02:30:24;13.23;;;11.87;;
3726;SDS011;1879;45.876;12.300;2022-11-14T02:32:51;15.00;;;12.77;;
3726;SDS011;1879;45.876;12.300;2022-11-14T02:35:18;12.10;;;10.80;;
3726;SDS011;1879;45.876;12.300;2022-11-14T02:37:47;13.33;;;12.00;;
3726;SDS011;1879;45.876;12.300;2022-11-14T02:40:14;11.73;;;10.53;;
3726;SDS011;1879;45.876;12.300;2022-11-14T02:42:42;13.63;;;11.20;;
3726;SDS011;1879;45.876;12.300;2022-11-14T02:45:09;12.13;;;10.93;;
3726;SDS011;1879;45.876;12.300;2022-11-14T02:47:37;13.10;;;11.70;;
3726;SDS011;1879;45.876;12.300;2022-11-14T02:50:04;12.03;;;10.83;;
3726;SDS011;1879;45.876;12.300;2022-11-14T02:52:32;12.50;;;11.30;;
3726;SDS011;1879;45.876;12.300;2022-11-14T02:55:00;12.23;;;11.00;;
3726;SDS011;1879;45.876;12.300;2022-11-14T02:57:27;12.67;;;11.37;;
3726;SDS011;1879;45.876;12.300;2022-11-14T02:59:55;11.37;;;10.27;;
3726;SDS011;1879;45.876;12.300;2022-11-14T03:02:22;13.07;;;11.30;;
3726;SDS011;1879;45.876;12.300;2022-11-14T03:04:49;11.77;;;10.57;;
3726;SDS011;1879;45.876;12.300;2022-11-14T03:07:16;11.90;;;10.70;;
3726;SDS011;1879;45.876;12.300;2022-11-14T03:09:44;11.47;;;10.23;;
3726;SDS011;1879;45.876;12.300;2022-11-14T03:12:14;12.30;;;11.10;;
3726;SDS011;1879;45.876;12.300;2022-11-14T03:14:41;12.87;;;11.50;;
3726;SDS011;1879;45.876;12.300;2022-11-14T03:17:09;15.97;;;13.07;;
3726;SDS011;1879;45.876;12.300;2022-11-14T03:19:36;13.30;;;11.97;;
3726;SDS011;1879;45.876;12.300;2022-11-14T03:22:03;13.40;;;12.00;;
3726;SDS011;1879;45.876;12.300;2022-11-14T03:24:31;12.47;;;11.17;;
3726;SDS011;1879;45.876;12.300;2022-11-14T03:26:58;14.87;;;11.23;;
3726;SDS011;1879;45.876;12.300;2022-11-14T03:29:26;12.13;;;10.93;;
3726;SDS011;1879;45.876;12.300;2022-11-14T03:31:54;12.10;;;10.90;;
3726;SDS011;1879;45.876;12.300;2022-11-14T03:34:21;13.10;;;11.77;;
3726;SDS011;1879;45.876;12.300;2022-11-14T03:36:48;14.23;;;12.77;;
3726;SDS011;1879;45.876;12.300;2022-11-14T03:39:15;12.43;;;11.13;;
3726;SDS011;1879;45.876;12.300;2022-11-14T03:41:43;14.57;;;13.07;;
3726;SDS011;1879;45.876;12.300;2022-11-14T03:44:10;14.03;;;12.13;;
3726;SDS011;1879;45.876;12.300;2022-11-14T03:46:39;13.20;;;11.87;;
3726;SDS011;1879;45.876;12.300;2022-11-14T03:49:06;12.93;;;11.63;;
3726;SDS011;1879;45.876;12.300;2022-11-14T03:51:33;11.70;;;10.50;;
3726;SDS011;1879;45.876;12.300;2022-11-14T03:54:00;13.70;;;12.40;;
3726;SDS011;1879;45.876;12.300;2022-11-14T03:56:28;12.20;;;10.90;;
3726;SDS011;1879;45.876;12.300;2022-11-14T03:58:55;12.80;;;11.50;;
3726;SDS011;1879;45.876;12.300;2022-11-14T04:01:22;12.07;;;10.87;;
3726;SDS011;1879;45.876;12.300;2022-11-14T04:03:51;12.00;;;10.70;;
3726;SDS011;1879;45.876;12.300;2022-11-14T04:06:18;13.07;;;11.77;;
3726;SDS011;1879;45.876;12.300;2022-11-14T04:08:45;13.17;;;11.77;;
3726;SDS011;1879;45.876;12.300;2022-11-14T04:11:13;12.70;;;10.60;;
3726;SDS011;1879;45.876;12.300;2022-11-14T04:13:40;14.37;;;11.37;;
3726;SDS011;1879;45.876;12.300;2022-11-14T04:16:07;12.57;;;11.37;;
3726;SDS011;1879;45.876;12.300;2022-11-14T04:18:34;12.17;;;11.07;;
3726;SDS011;1879;45.876;12.300;2022-11-14T04:21:03;11.53;;;10.33;;
3726;SDS011;1879;45.876;12.300;2022-11-14T04:23:30;11.10;;;9.90;;
3726;SDS011;1879;45.876;12.300;2022-11-14T04:25:57;11.23;;;10.20;;
3726;SDS011;1879;45.876;12.300;2022-11-14T04:28:25;12.87;;;11.57;;
3726;SDS011;1879;45.876;12.300;2022-11-14T04:30:52;11.87;;;10.67;;
3726;SDS011;1879;45.876;12.300;2022-11-14T04:33:19;11.63;;;10.43;;
3726;SDS011;1879;45.876;12.300;2022-11-14T04:35:46;10.93;;;9.83;;
3726;SDS011;1879;45.876;12.300;2022-11-14T04:38:15;12.60;;;11.40;;
3726;SDS011;1879;45.876;12.300;2022-11-14T04:40:47;13.73;;;12.20;;
3726;SDS011;1879;45.876;12.300;2022-11-14T04:43:14;10.70;;;9.60;;
3726;SDS011;1879;45.876;12.300;2022-11-14T04:45:41;13.40;;;11.47;;
3726;SDS011;1879;45.876;12.300;2022-11-14T04:48:08;11.80;;;10.70;;
3726;SDS011;1879;45.876;12.300;2022-11-14T04:50:35;12.80;;;11.50;;
3726;SDS011;1879;45.876;12.300;2022-11-14T04:53:03;10.60;;;9.53;;
3726;SDS011;1879;45.876;12.300;2022-11-14T04:55:32;11.33;;;10.13;;
3726;SDS011;1879;45.876;12.300;2022-11-14T04:57:59;12.23;;;11.03;;
3726;SDS011;1879;45.876;12.300;2022-11-14T05:00:26;10.83;;;9.70;;
3726;SDS011;1879;45.876;12.300;2022-11-14T05:02:54;10.73;;;9.70;;
3726;SDS011;1879;45.876;12.300;2022-11-14T05:05:21;10.80;;;9.67;;
3726;SDS011;1879;45.876;12.300;2022-11-14T05:07:48;11.03;;;9.93;;
3726;SDS011;1879;45.876;12.300;2022-11-14T05:10:15;11.20;;;10.00;;
3726;SDS011;1879;45.876;12.300;2022-11-14T05:12:44;11.23;;;8.80;;
3726;SDS011;1879;45.876;12.300;2022-11-14T05:15:11;9.73;;;8.73;;
3726;SDS011;1879;45.876;12.300;2022-11-14T05:17:38;10.10;;;9.20;;
3726;SDS011;1879;45.876;12.300;2022-11-14T05:20:06;9.70;;;8.80;;
3726;SDS011;1879;45.876;12.300;2022-11-14T05:22:33;9.20;;;8.10;;
3726;SDS011;1879;45.876;12.300;2022-11-14T05:25:00;8.13;;;7.33;;
3726;SDS011;1879;45.876;12.300;2022-11-14T05:27:28;9.20;;;8.10;;
3726;SDS011;1879;45.876;12.300;2022-11-14T05:29:57;7.90;;;7.20;;
3726;SDS011;1879;45.876;12.300;2022-11-14T05:32:25;7.80;;;7.00;;
3726;SDS011;1879;45.876;12.300;2022-11-14T05:34:52;8.73;;;7.83;;
3726;SDS011;1879;45.876;12.300;2022-11-14T05:37:20;9.53;;;8.63;;
3726;SDS011;1879;45.876;12.300;2022-11-14T05:39:48;8.30;;;6.90;;
3726;SDS011;1879;45.876;12.300;2022-11-14T05:42:15;8.90;;;7.40;;
3726;SDS011;1879;45.876;12.300;2022-11-14T05:44:43;7.23;;;6.53;;
3726;SDS011;1879;45.876;12.300;2022-11-14T05:47:11;6.80;;;6.20;;
3726;SDS011;1879;45.876;12.300;2022-11-14T05:49:40;7.20;;;6.50;;
3726;SDS011;1879;45.876;12.300;2022-11-14T05:52:07;6.60;;;6.00;;
3726;SDS011;1879;45.876;12.300;2022-11-14T05:54:35;7.50;;;6.00;;
3726;SDS011;1879;45.876;12.300;2022-11-14T05:57:02;5.93;;;5.43;;
3726;SDS011;1879;45.876;12.300;2022-11-14T05:59:29;6.63;;;6.00;;
3726;SDS011;1879;45.876;12.300;2022-11-14T06:01:57;4.90;;;4.40;;
3726;SDS011;1879;45.876;12.300;2022-11-14T06:04:25;5.90;;;5.30;;
3726;SDS011;1879;45.876;12.300;2022-11-14T06:06:52;5.80;;;5.03;;
3726;SDS011;1879;45.876;12.300;2022-11-14T06:09:20;5.60;;;4.60;;
3726;SDS011;1879;45.876;12.300;2022-11-14T06:11:47;5.00;;;4.50;;
3726;SDS011;1879;45.876;12.300;2022-11-14T06:14:17;4.17;;;3.87;;
3726;SDS011;1879;45.876;12.300;2022-11-14T06:16:44;8.13;;;4.60;;
3726;SDS011;1879;45.876;12.300;2022-11-14T06:19:11;4.53;;;4.13;;
3726;SDS011;1879;45.876;12.300;2022-11-14T06:21:40;4.70;;;4.30;;
3726;SDS011;1879;45.876;12.300;2022-11-14T06:24:07;4.83;;;4.20;;
3726;SDS011;1879;45.876;12.300;2022-11-14T06:26:34;5.07;;;4.27;;
3726;SDS011;1879;45.876;12.300;2022-11-14T06:29:01;5.10;;;4.03;;
3726;SDS011;1879;45.876;12.300;2022-11-14T06:31:29;5.10;;;4.60;;
3726;SDS011;1879;45.876;12.300;2022-11-14T06:33:56;5.33;;;4.93;;
3726;SDS011;1879;45.876;12.300;2022-11-14T06:36:23;5.17;;;4.70;;
3726;SDS011;1879;45.876;12.300;2022-11-14T06:38:52;6.83;;;6.13;;
3726;SDS011;1879;45.876;12.300;2022-11-14T06:41:19;5.20;;;4.70;;
3726;SDS011;1879;45.876;12.300;2022-11-14T06:43:47;7.83;;;7.03;;
3726;SDS011;1879;45.876;12.300;2022-11-14T06:46:15;7.90;;;7.10;;
3726;SDS011;1879;45.876;12.300;2022-11-14T06:48:43;6.80;;;5.77;;
3726;SDS011;1879;45.876;12.300;2022-11-14T06:51:11;6.77;;;6.17;;
3726;SDS011;1879;45.876;12.300;2022-11-14T06:53:39;8.13;;;7.33;;
3726;SDS011;1879;45.876;12.300;2022-11-14T06:56:09;5.90;;;5.30;;
3726;SDS011;1879;45.876;12.300;2022-11-14T06:58:37;5.77;;;5.27;;
3726;SDS011;1879;45.876;12.300;2022-11-14T07:01:05;6.90;;;5.90;;
3726;SDS011;1879;45.876;12.300;2022-11-14T07:03:33;5.50;;;4.97;;
3726;SDS011;1879;45.876;12.300;2022-11-14T07:06:00;6.30;;;5.70;;
3726;SDS011;1879;45.876;12.300;2022-11-14T07:08:28;7.70;;;5.43;;
3726;SDS011;1879;45.876;12.300;2022-11-14T07:10:59;5.43;;;4.93;;
3726;SDS011;1879;45.876;12.300;2022-11-14T07:13:28;7.37;;;5.63;;
3726;SDS011;1879;45.876;12.300;2022-11-14T07:15:56;4.70;;;4.30;;
3726;SDS011;1879;45.876;12.300;2022-11-14T07:18:24;5.87;;;5.37;;
3726;SDS011;1879;45.876;12.300;2022-11-14T07:20:55;5.40;;;4.90;;
3726;SDS011;1879;45.876;12.300;2022-11-14T07:23:23;5.63;;;4.80;;
3726;SDS011;1879;45.876;12.300;2022-11-14T07:25:50;5.77;;;5.27;;
3726;SDS011;1879;45.876;12.300;2022-11-14T07:28:17;4.93;;;4.37;;
3726;SDS011;1879;45.876;12.300;2022-11-14T07:30:46;4.83;;;4.43;;
3726;SDS011;1879;45.876;12.300;2022-11-14T07:33:13;4.90;;;4.20;;
3726;SDS011;1879;45.876;12.300;2022-11-14T07:35:40;5.43;;;4.10;;
3726;SDS011;1879;45.876;12.300;2022-11-14T07:38:08;4.40;;;4.00;;
3726;SDS011;1879;45.876;12.300;2022-11-14T07:40:35;4.73;;;4.10;;
3726;SDS011;1879;45.876;12.300;2022-11-14T07:43:02;4.77;;;4.23;;
3726;SDS011;1879;45.876;12.300;2022-11-14T07:45:30;5.03;;;4.17;;
3726;SDS011;1879;45.876;12.300;2022-11-14T07:47:59;5.60;;;4.30;;
3726;SDS011;1879;45.876;12.300;2022-11-14T07:50:27;5.30;;;4.87;;
3726;SDS011;1879;45.876;12.300;2022-11-14T07:52:55;4.90;;;4.27;;
3726;SDS011;1879;45.876;12.300;2022-11-14T07:55:23;8.03;;;4.67;;
3726;SDS011;1879;45.876;12.300;2022-11-14T07:57:53;5.33;;;4.77;;
3726;SDS011;1879;45.876;12.300;2022-11-14T08:00:21;5.30;;;4.80;;
3726;SDS011;1879;45.876;12.300;2022-11-14T08:02:48;6.50;;;5.23;;
3726;SDS011;1879;45.876;12.300;2022-11-14T08:05:17;5.77;;;5.07;;
3726;SDS011;1879;45.876;12.300;2022-11-14T08:07:44;5.67;;;5.17;;
3726;SDS011;1879;45.876;12.300;2022-11-14T08:10:11;6.23;;;5.60;;
3726;SDS011;1879;45.876;12.300;2022-11-14T08:12:39;5.73;;;5.23;;
3726;SDS011;1879;45.876;12.300;2022-11-14T08:15:07;6.30;;;5.70;;
3726;SDS011;1879;45.876;12.300;2022-11-14T08:17:35;11.03;;;6.30;;
3726;SDS011;1879;45.876;12.300;2022-11-14T08:20:02;7.57;;;5.90;;
3726;SDS011;1879;45.876;12.300;2022-11-14T08:22:31;5.90;;;5.40;;
3726;SDS011;1879;45.876;12.300;2022-11-14T08:24:58;6.50;;;5.90;;
3726;SDS011;1879;45.876;12.300;2022-11-14T08:27:25;6.77;;;6.13;;
3726;SDS011;1879;45.876;12.300;2022-11-14T08:29:52;7.20;;;6.03;;
3726;SDS011;1879;45.876;12.300;2022-11-14T08:32:20;6.80;;;6.07;;
3726;SDS011;1879;45.876;12.300;2022-11-14T08:34:47;6.50;;;5.73;;
3726;SDS011;1879;45.876;12.300;2022-11-14T08:37:14;7.30;;;6.30;;
3726;SDS011;1879;45.876;12.300;2022-11-14T08:39:43;6.40;;;5.70;;
3726;SDS011;1879;45.876;12.300;2022-11-14T08:42:10;6.70;;;5.50;;
3726;SDS011;1879;45.876;12.300;2022-11-14T08:44:37;6.17;;;5.57;;
3726;SDS011;1879;45.876;12.300;2022-11-14T08:47:05;6.23;;;5.63;;
3726;SDS011;1879;45.876;12.300;2022-11-14T08:49:32;7.27;;;5.00;;
3726;SDS011;1879;45.876;12.300;2022-11-14T08:51:59;5.20;;;4.70;;
3726;SDS011;1879;45.876;12.300;2022-11-14T08:54:26;5.37;;;4.87;;
3726;SDS011;1879;45.876;12.300;2022-11-14T08:56:56;5.20;;;4.70;;
3726;SDS011;1879;45.876;12.300;2022-11-14T08:59:23;6.23;;;5.33;;
3726;SDS011;1879;45.876;12.300;2022-11-14T09:01:50;5.23;;;4.83;;
3726;SDS011;1879;45.876;12.300;2022-11-14T09:04:17;6.40;;;4.60;;
3726;SDS011;1879;45.876;12.300;2022-11-14T09:06:45;5.87;;;5.27;;
3726;SDS011;1879;45.876;12.300;2022-11-14T09:09:12;5.43;;;4.93;;
3726;SDS011;1879;45.876;12.300;2022-11-14T09:11:40;5.50;;;5.00;;
3726;SDS011;1879;45.876;12.300;2022-11-14T09:14:08;5.60;;;5.00;;
3726;SDS011;1879;45.876;12.300;2022-11-14T09:16:36;6.97;;;4.70;;
3726;SDS011;1879;45.876;12.300;2022-11-14T09:19:03;5.17;;;4.73;;
3726;SDS011;1879;45.876;12.300;2022-11-14T09:21:30;6.00;;;4.60;;
3726;SDS011;1879;45.876;12.300;2022-11-14T09:23:57;5.13;;;4.63;;
3726;SDS011;1879;45.876;12.300;2022-11-14T09:26:25;5.70;;;5.20;;
3726;SDS011;1879;45.876;12.300;2022-11-14T09:28:52;6.30;;;5.70;;
3726;SDS011;1879;45.876;12.300;2022-11-14T09:31:21;5.03;;;4.57;;
3726;SDS011;1879;45.876;12.300;2022-11-14T09:33:48;4.87;;;4.07;;
3726;SDS011;1879;45.876;12.300;2022-11-14T09:36:15;5.97;;;5.47;;
3726;SDS011;1879;45.876;12.300;2022-11-14T09:38:43;5.13;;;4.70;;
3726;SDS011;1879;45.876;12.300;2022-11-14T09:41:19;4.77;;;4.33;;
3726;SDS011;1879;45.876;12.300;2022-11-14T09:46:51;5.23;;;4.73;;
3726;SDS011;1879;45.876;12.300;2022-11-14T09:49:22;5.30;;;4.80;;
3726;SDS011;1879;45.876;12.300;2022-11-14T09:51:52;5.33;;;4.83;;
3726;SDS011;1879;45.876;12.300;2022-11-14T09:54:20;4.57;;;4.13;;
3726;SDS011;1879;45.876;12.300;2022-11-14T09:56:49;5.93;;;4.97;;
3726;SDS011;1879;45.876;12.300;2022-11-14T09:59:16;7.37;;;4.60;;
3726;SDS011;1879;45.876;12.300;2022-11-14T10:01:45;5.23;;;4.73;;
3726;SDS011;1879;45.876;12.300;2022-11-14T10:04:18;6.23;;;4.03;;
3726;SDS011;1879;45.876;12.300;2022-11-14T10:06:52;5.10;;;4.60;;
3726;SDS011;1879;45.876;12.300;2022-11-14T10:09:28;5.57;;;5.17;;
3726;SDS011;1879;45.876;12.300;2022-11-14T10:12:03;5.43;;;4.93;;
3726;SDS011;1879;45.876;12.300;2022-11-14T10:14:47;4.73;;;4.33;;
3726;SDS011;1879;45.876;12.300;2022-11-14T10:17:22;5.70;;;5.07;;
3726;SDS011;1879;45.876;12.300;2022-11-14T10:19:56;5.90;;;5.27;;
3726;SDS011;1879;45.876;12.300;2022-11-14T10:22:30;6.33;;;5.73;;
3726;SDS011;1879;45.876;12.300;2022-11-14T10:25:02;9.87;;;6.23;;
3726;SDS011;1879;45.876;12.300;2022-11-14T10:27:32;4.80;;;4.30;;
3726;SDS011;1879;45.876;12.300;2022-11-14T10:32:48;5.67;;;4.60;;
3726;SDS011;1879;45.876;12.300;2022-11-14T10:35:18;5.63;;;4.53;;
3726;SDS011;1879;45.876;12.300;2022-11-14T10:37:50;5.00;;;4.50;;
3726;SDS011;1879;45.876;12.300;2022-11-14T10:40:20;5.50;;;4.30;;
3726;SDS011;1879;45.876;12.300;2022-11-14T10:42:49;5.40;;;4.90;;
3726;SDS011;1879;45.876;12.300;2022-11-14T10:45:17;5.10;;;4.60;;
3726;SDS011;1879;45.876;12.300;2022-11-14T10:47:48;5.60;;;4.70;;
3726;SDS011;1879;45.876;12.300;2022-11-14T10:50:19;5.43;;;4.93;;
3726;SDS011;1879;45.876;12.300;2022-11-14T10:52:47;5.40;;;4.37;;
3726;SDS011;1879;45.876;12.300;2022-11-14T10:55:18;5.93;;;5.27;;
3726;SDS011;1879;45.876;12.300;2022-11-14T10:57:46;5.90;;;5.30;;
3726;SDS011;1879;45.876;12.300;2022-11-14T11:00:14;5.13;;;4.57;;
3726;SDS011;1879;45.876;12.300;2022-11-14T11:02:46;6.03;;;5.00;;
3726;SDS011;1879;45.876;12.300;2022-11-14T11:05:15;5.53;;;3.90;;
3726;SDS011;1879;45.876;12.300;2022-11-14T11:07:44;4.33;;;3.93;;
3726;SDS011;1879;45.876;12.300;2022-11-14T11:10:29;4.87;;;4.30;;
3726;SDS011;1879;45.876;12.300;2022-11-14T11:13:14;6.17;;;5.00;;
3726;SDS011;1879;45.876;12.300;2022-11-14T11:15:54;7.70;;;4.67;;
3726;SDS011;1879;45.876;12.300;2022-11-14T11:18:23;5.17;;;4.67;;
3726;SDS011;1879;45.876;12.300;2022-11-14T11:21:00;4.40;;;4.00;;
3726;SDS011;1879;45.876;12.300;2022-11-14T11:23:28;5.13;;;4.63;;
3726;SDS011;1879;45.876;12.300;2022-11-14T11:25:58;4.40;;;4.00;;
3726;SDS011;1879;45.876;12.300;2022-11-14T11:28:30;4.90;;;3.97;;
3726;SDS011;1879;45.876;12.300;2022-11-14T11:30:58;4.77;;;4.37;;
3726;SDS011;1879;45.876;12.300;2022-11-14T11:33:26;5.10;;;4.60;;
3726;SDS011;1879;45.876;12.300;2022-11-14T11:35:55;4.60;;;4.20;;
3726;SDS011;1879;45.876;12.300;2022-11-14T11:38:24;5.20;;;4.40;;
3726;SDS011;1879;45.876;12.300;2022-11-14T11:40:59;4.90;;;4.30;;
3726;SDS011;1879;45.876;12.300;2022-11-14T11:43:29;4.80;;;4.30;;
3726;SDS011;1879;45.876;12.300;2022-11-14T11:46:02;4.40;;;4.00;;
3726;SDS011;1879;45.876;12.300;2022-11-14T11:48:32;4.23;;;3.83;;
3726;SDS011;1879;45.876;12.300;2022-11-14T11:51:01;4.57;;;4.17;;
3726;SDS011;1879;45.876;12.300;2022-11-14T11:53:30;4.73;;;4.30;;
3726;SDS011;1879;45.876;12.300;2022-11-14T11:56:03;4.23;;;3.93;;
3726;SDS011;1879;45.876;12.300;2022-11-14T11:58:31;5.17;;;4.67;;
3726;SDS011;1879;45.876;12.300;2022-11-14T12:01:01;4.93;;;4.43;;
3726;SDS011;1879;45.876;12.300;2022-11-14T12:03:28;4.43;;;4.03;;
3726;SDS011;1879;45.876;12.300;2022-11-14T12:05:58;5.60;;;4.87;;
3726;SDS011;1879;45.876;12.300;2022-11-14T12:08:30;5.63;;;4.70;;
3726;SDS011;1879;45.876;12.300;2022-11-14T12:10:59;4.70;;;4.30;;
3726;SDS011;1879;45.876;12.300;2022-11-14T12:13:46;6.03;;;4.80;;
3726;SDS011;1879;45.876;12.300;2022-11-14T12:16:26;4.87;;;4.37;;
3726;SDS011;1879;45.876;12.300;2022-11-14T12:21:57;5.07;;;4.57;;
3726;SDS011;1879;45.876;12.300;2022-11-14T12:27:17;4.90;;;4.37;;
3726;SDS011;1879;45.876;12.300;2022-11-14T12:30:00;4.93;;;4.53;;
3726;SDS011;1879;45.876;12.300;2022-11-14T12:32:30;5.00;;;4.57;;
3726;SDS011;1879;45.876;12.300;2022-11-14T12:34:58;5.90;;;4.50;;
3726;SDS011;1879;45.876;12.300;2022-11-14T12:37:27;4.90;;;4.40;;
3726;SDS011;1879;45.876;12.300;2022-11-14T12:39:57;5.10;;;4.60;;
3726;SDS011;1879;45.876;12.300;2022-11-14T12:42:27;4.97;;;4.47;;
3726;SDS011;1879;45.876;12.300;2022-11-14T12:44:54;4.80;;;4.40;;
3726;SDS011;1879;45.876;12.300;2022-11-14T12:47:22;5.07;;;4.67;;
3726;SDS011;1879;45.876;12.300;2022-11-14T12:50:00;3.87;;;3.50;;
3726;SDS011;1879;45.876;12.300;2022-11-14T12:58:03;4.13;;;3.73;;
3726;SDS011;1879;45.876;12.300;2022-11-14T13:00:32;4.60;;;4.20;;
3726;SDS011;1879;45.876;12.300;2022-11-14T13:03:10;4.27;;;3.87;;
3726;SDS011;1879;45.876;12.300;2022-11-14T13:05:53;4.10;;;3.73;;
3726;SDS011;1879;45.876;12.300;2022-11-14T13:08:30;4.20;;;3.47;;
3726;SDS011;1879;45.876;12.300;2022-11-14T13:14:07;3.97;;;3.57;;
3726;SDS011;1879;45.876;12.300;2022-11-14T13:16:51;4.63;;;4.23;;
3726;SDS011;1879;45.876;12.300;2022-11-14T13:19:43;4.27;;;3.87;;
3726;SDS011;1879;45.876;12.300;2022-11-14T13:22:35;5.43;;;4.00;;
3726;SDS011;1879;45.876;12.300;2022-11-14T13:25:19;4.10;;;3.70;;
3726;SDS011;1879;45.876;12.300;2022-11-14T13:27:47;4.83;;;4.13;;
3726;SDS011;1879;45.876;12.300;2022-11-14T13:30:16;4.00;;;3.70;;
3726;SDS011;1879;45.876;12.300;2022-11-14T13:35:46;4.33;;;3.70;;
3726;SDS011;1879;45.876;12.300;2022-11-14T13:41:04;4.20;;;3.80;;
3726;SDS011;1879;45.876;12.300;2022-11-14T13:43:40;4.57;;;4.10;;
3726;SDS011;1879;45.876;12.300;2022-11-14T13:46:12;4.40;;;4.00;;
3726;SDS011;1879;45.876;12.300;2022-11-14T13:48:50;4.20;;;3.80;;
3726;SDS011;1879;45.876;12.300;2022-11-14T13:51:21;4.00;;;3.70;;
3726;SDS011;1879;45.876;12.300;2022-11-14T13:53:50;4.33;;;4.03;;
3726;SDS011;1879;45.876;12.300;2022-11-14T13:56:24;4.00;;;3.70;;
3726;SDS011;1879;45.876;12.300;2022-11-14T13:59:06;3.90;;;3.50;;
3726;SDS011;1879;45.876;12.300;2022-11-14T14:01:44;3.73;;;3.43;;
3726;SDS011;1879;45.876;12.300;2022-11-14T14:04:24;4.13;;;3.73;;
3726;SDS011;1879;45.876;12.300;2022-11-14T14:07:00;4.43;;;4.03;;
3726;SDS011;1879;45.876;12.300;2022-11-14T14:09:32;4.30;;;3.90;;
3726;SDS011;1879;45.876;12.300;2022-11-14T14:12:09;4.23;;;3.83;;
3726;SDS011;1879;45.876;12.300;2022-11-14T14:14:55;4.20;;;3.83;;
3726;SDS011;1879;45.876;12.300;2022-11-14T14:17:26;4.70;;;4.30;;
3726;SDS011;1879;45.876;12.300;2022-11-14T14:20:00;4.70;;;4.30;;
3726;SDS011;1879;45.876;12.300;2022-11-14T14:22:30;4.83;;;4.43;;
3726;SDS011;1879;45.876;12.300;2022-11-14T14:25:05;5.13;;;4.73;;
3726;SDS011;1879;45.876;12.300;2022-11-14T14:27:36;5.77;;;4.63;;
3726;SDS011;1879;45.876;12.300;2022-11-14T14:30:07;4.77;;;4.20;;
3726;SDS011;1879;45.876;12.300;2022-11-14T14:32:39;4.53;;;4.10;;
3726;SDS011;1879;45.876;12.300;2022-11-14T14:35:19;5.37;;;4.30;;
3726;SDS011;1879;45.876;12.300;2022-11-14T14:37:50;5.20;;;3.47;;
3726;SDS011;1879;45.876;12.300;2022-11-14T14:40:24;4.77;;;4.30;;
3726;SDS011;1879;45.876;12.300;2022-11-14T14:42:51;5.10;;;4.60;;
3726;SDS011;1879;45.876;12.300;2022-11-14T14:45:21;5.97;;;4.77;;
3726;SDS011;1879;45.876;12.300;2022-11-14T14:47:57;4.60;;;4.07;;
3726;SDS011;1879;45.876;12.300;2022-11-14T14:50:26;6.40;;;4.97;;
3726;SDS011;1879;45.876;12.300;2022-11-14T14:52:54;6.03;;;4.80;;
3726;SDS011;1879;45.876;12.300;2022-11-14T14:55:22;5.50;;;5.00;;
3726;SDS011;1879;45.876;12.300;2022-11-14T14:57:49;6.40;;;5.80;;
3726;SDS011;1879;45.876;12.300;2022-11-14T15:00:19;6.20;;;5.60;;
3726;SDS011;1879;45.876;12.300;2022-11-14T15:02:51;7.20;;;6.27;;
3726;SDS011;1879;45.876;12.300;2022-11-14T15:05:22;9.60;;;8.70;;
3726;SDS011;1879;45.876;12.300;2022-11-14T15:07:50;18.57;;;10.37;;
3726;SDS011;1879;45.876;12.300;2022-11-14T15:10:20;8.87;;;7.27;;
3726;SDS011;1879;45.876;12.300;2022-11-14T15:12:49;6.83;;;6.23;;
3726;SDS011;1879;45.876;12.300;2022-11-14T15:15:17;6.30;;;5.70;;
3726;SDS011;1879;45.876;12.300;2022-11-14T15:17:45;6.00;;;5.40;;
3726;SDS011;1879;45.876;12.300;2022-11-14T15:20:21;6.00;;;5.50;;
3726;SDS011;1879;45.876;12.300;2022-11-14T15:23:01;9.67;;;6.80;;
3726;SDS011;1879;45.876;12.300;2022-11-14T15:25:28;8.60;;;7.80;;
3726;SDS011;1879;45.876;12.300;2022-11-14T15:27:56;7.80;;;6.43;;
3726;SDS011;1879;45.876;12.300;2022-11-14T15:30:25;11.40;;;6.80;;